createdAt,value
2018-01-15T00:00:02.394Z,15.63
2018-01-15T00:02:29.851Z,13.73
2018-01-15T00:04:57.301Z,13.02
2018-01-15T00:07:24.747Z,12.13
2018-01-15T00:09:52.208Z,13.88
2018-01-15T00:12:19.655Z,12.90
2018-01-15T00:14:47.118Z,14.30
2018-01-15T00:17:14.564Z,13.82
2018-01-15T00:19:42.015Z,14.43
2018-01-15T00:22:09.463Z,13.90
2018-01-15T00:24:37.694Z,13.13
2018-01-15T00:27:05.142Z,12.77
2018-01-15T00:29:32.593Z,12.50
2018-01-15T00:32:00.038Z,12.63
2018-01-15T00:34:27.501Z,14.00
2018-01-15T00:36:54.980Z,14.70
2018-01-15T00:39:23.195Z,13.57
2018-01-15T00:41:51.416Z,15.98
2018-01-15T00:44:18.868Z,14.57
2018-01-15T00:46:46.320Z,14.95
2018-01-15T00:49:13.769Z,15.43
2018-01-15T00:51:41.224Z,15.63
2018-01-15T00:54:08.669Z,15.00
2018-01-15T00:56:36.123Z,13.40
2018-01-15T00:59:03.569Z,14.63
2018-01-15T01:01:31.028Z,16.10
2018-01-15T01:03:58.474Z,15.10
2018-01-15T01:06:26.701Z,14.50
2018-01-15T01:08:54.153Z,15.52
2018-01-15T01:11:21.602Z,15.45
2018-01-15T01:13:49.052Z,13.85
2018-01-15T01:16:16.504Z,14.98
2018-01-15T01:18:43.962Z,15.77
2018-01-15T01:21:11.404Z,14.60
2018-01-15T01:23:38.855Z,14.20
2018-01-15T01:26:06.308Z,15.90
2018-01-15T01:28:34.537Z,14.52
2018-01-15T01:31:01.988Z,14.98
2018-01-15T01:33:29.431Z,13.57
2018-01-15T01:35:56.880Z,14.13
2018-01-15T01:38:24.336Z,15.63
2018-01-15T01:40:51.787Z,15.82
2018-01-15T01:43:19.232Z,15.10
2018-01-15T01:45:46.693Z,14.87
2018-01-15T01:48:14.131Z,15.77
2018-01-15T01:50:42.350Z,15.80
2018-01-15T01:53:09.797Z,15.25
2018-01-15T01:55:37.251Z,17.15
2018-01-15T01:58:04.707Z,15.15
2018-01-15T02:00:32.161Z,15.10
2018-01-15T02:02:59.617Z,16.02
2018-01-15T02:05:27.058Z,14.70
2018-01-15T02:07:54.505Z,16.73
2018-01-15T02:10:22.716Z,14.57
2018-01-15T02:12:50.181Z,14.05
2018-01-15T02:15:17.623Z,15.43
2018-01-15T02:17:45.244Z,15.65
2018-01-15T02:20:13.461Z,15.10
2018-01-15T02:22:40.903Z,13.65
2018-01-15T02:25:08.359Z,15.40
2018-01-15T02:27:35.810Z,12.95
2018-01-15T02:30:03.270Z,14.15
2018-01-15T02:32:30.709Z,14.73
2018-01-15T02:34:58.932Z,15.25
2018-01-15T02:37:26.379Z,13.80
2018-01-15T02:39:54.016Z,13.65
2018-01-15T02:42:21.465Z,13.70
2018-01-15T02:44:48.929Z,15.93
2018-01-15T02:47:16.383Z,16.20
2018-01-15T02:49:43.824Z,14.45
2018-01-15T02:52:12.047Z,14.68
2018-01-15T02:54:39.491Z,14.73
2018-01-15T02:57:06.955Z,13.05
2018-01-15T02:59:34.401Z,13.40
2018-01-15T03:02:01.853Z,11.90
2018-01-15T03:04:29.300Z,13.40
2018-01-15T03:06:56.747Z,11.35
2018-01-15T03:09:24.194Z,12.32
2018-01-15T03:11:52.645Z,11.40
2018-01-15T03:14:20.084Z,12.35
2018-01-15T03:16:47.535Z,10.45
2018-01-15T03:19:14.992Z,11.80
2018-01-15T03:21:42.447Z,12.48
2018-01-15T03:24:09.891Z,12.43
2018-01-15T03:26:37.339Z,12.40
2018-01-15T03:29:04.807Z,13.02
2018-01-15T03:31:32.253Z,11.82
2018-01-15T03:33:59.717Z,11.95
2018-01-15T03:36:27.169Z,12.45
2018-01-15T03:38:54.628Z,13.38
2018-01-15T03:41:22.075Z,12.18
2018-01-15T03:43:49.528Z,11.45
2018-01-15T03:46:16.988Z,11.43
2018-01-15T03:48:44.444Z,11.00
2018-01-15T03:51:11.896Z,14.07
2018-01-15T03:53:40.006Z,12.95
2018-01-15T03:56:07.447Z,14.75
2018-01-15T03:58:34.899Z,14.57
2018-01-15T04:01:02.353Z,13.75
2018-01-15T04:03:29.802Z,14.13
2018-01-15T04:05:57.261Z,11.32
2018-01-15T04:08:24.711Z,13.73
2018-01-15T04:10:52.348Z,14.43
2018-01-15T04:13:20.560Z,13.70
2018-01-15T04:15:48.013Z,13.57
2018-01-15T04:18:15.470Z,13.35
2018-01-15T04:20:42.929Z,13.27
2018-01-15T04:23:10.388Z,13.68
2018-01-15T04:25:37.836Z,14.05
2018-01-15T04:28:05.294Z,13.25
2018-01-15T04:30:32.753Z,12.73
2018-01-15T04:33:00.213Z,15.00
2018-01-15T04:35:27.659Z,14.60
2018-01-15T04:37:55.120Z,14.43
2018-01-15T04:40:22.570Z,13.77
2018-01-15T04:42:50.022Z,12.82
2018-01-15T04:45:17.480Z,14.40
2018-01-15T04:47:44.924Z,13.70
2018-01-15T04:50:12.382Z,13.15
2018-01-15T04:52:39.835Z,13.73
2018-01-15T04:55:07.296Z,12.40
2018-01-15T04:57:34.751Z,13.60
2018-01-15T05:00:02.212Z,14.15
2018-01-15T05:02:29.663Z,13.07
2018-01-15T05:04:58.069Z,14.15
2018-01-15T05:07:25.520Z,15.05
2018-01-15T05:09:52.972Z,14.32
2018-01-15T05:12:20.431Z,15.07
2018-01-15T05:14:47.880Z,15.10
2018-01-15T05:17:15.331Z,15.25
2018-01-15T05:19:42.794Z,16.58
2018-01-15T05:22:10.244Z,16.58
2018-01-15T05:24:37.696Z,15.32
2018-01-15T05:27:05.147Z,15.40
2018-01-15T05:29:33.360Z,15.70
2018-01-15T05:32:00.807Z,15.32
2018-01-15T05:34:28.268Z,15.93
2018-01-15T05:36:55.707Z,16.20
2018-01-15T05:39:23.162Z,15.50
2018-01-15T05:41:50.615Z,14.77
2018-01-15T05:44:18.068Z,14.80
2018-01-15T05:46:45.524Z,14.50
2018-01-15T05:49:12.979Z,16.25
2018-01-15T05:51:40.427Z,17.85
2018-01-15T05:54:08.651Z,15.43
2018-01-15T05:56:36.099Z,15.25
2018-01-15T05:59:03.547Z,16.45
2018-01-15T06:01:31.002Z,13.50
2018-01-15T06:03:58.462Z,16.98
2018-01-15T06:06:25.918Z,14.65
2018-01-15T06:08:53.368Z,15.65
2018-01-15T06:11:20.832Z,16.45
2018-01-15T06:13:48.280Z,16.25
2018-01-15T06:16:15.726Z,17.00
2018-01-15T06:18:43.179Z,16.30
2018-01-15T06:21:10.645Z,14.70
2018-01-15T06:23:38.098Z,15.07
2018-01-15T06:26:05.549Z,14.80
2018-01-15T06:28:33.700Z,17.77
2018-01-15T06:31:01.921Z,17.62
2018-01-15T06:33:29.383Z,17.00
2018-01-15T06:35:56.835Z,16.58
2018-01-15T06:38:24.293Z,15.15
2018-01-15T06:40:51.749Z,16.40
2018-01-15T06:43:19.210Z,17.87
2018-01-15T06:45:46.655Z,16.45
2018-01-15T06:48:14.113Z,18.33
2018-01-15T06:50:41.563Z,16.35
2018-01-15T06:53:09.034Z,19.00
2018-01-15T06:55:36.484Z,18.08
2018-01-15T06:58:03.928Z,17.87
2018-01-15T07:00:31.388Z,18.08
2018-01-15T07:02:58.844Z,18.40
2018-01-15T07:05:26.303Z,16.30
2018-01-15T07:07:53.755Z,16.40
2018-01-15T07:10:21.232Z,16.30
2018-01-15T07:12:48.852Z,18.48
2018-01-15T07:15:17.083Z,16.67
2018-01-15T07:17:44.539Z,19.67
2018-01-15T07:20:11.991Z,16.87
2018-01-15T07:22:39.453Z,16.17
2018-01-15T07:25:06.916Z,16.85
2018-01-15T07:27:34.368Z,15.82
2018-01-15T07:30:01.827Z,17.30
2018-01-15T07:32:29.280Z,16.20
2018-01-15T07:34:56.734Z,19.10
2018-01-15T07:37:24.180Z,17.92
2018-01-15T07:39:51.634Z,18.42
2018-01-15T07:42:19.087Z,16.87
2018-01-15T07:44:46.538Z,19.25
2018-01-15T07:47:13.991Z,16.20
2018-01-15T07:49:41.442Z,17.55
2018-01-15T07:52:08.904Z,20.08
2018-01-15T07:54:36.352Z,17.95
2018-01-15T07:57:03.806Z,16.60
2018-01-15T07:59:31.259Z,18.08
2018-01-15T08:01:58.724Z,16.37
2018-01-15T08:04:26.175Z,18.17
2018-01-15T08:06:53.628Z,16.67
2018-01-15T08:09:21.097Z,15.02
2018-01-15T08:11:48.548Z,16.95
2018-01-15T08:14:16.016Z,15.20
2018-01-15T08:16:43.463Z,18.23
2018-01-15T08:19:10.923Z,16.77
2018-01-15T08:21:38.376Z,21.65
2018-01-15T08:24:05.844Z,17.02
2018-01-15T08:26:33.328Z,17.20
2018-01-15T08:29:00.788Z,16.50
2018-01-15T08:31:28.235Z,17.00
2018-01-15T08:33:55.684Z,19.23
2018-01-15T08:36:23.907Z,18.37
2018-01-15T08:38:52.133Z,19.70
2018-01-15T08:41:19.591Z,19.85
2018-01-15T08:43:47.047Z,19.37
2018-01-15T08:46:14.504Z,20.02
2018-01-15T08:48:41.965Z,16.20
2018-01-15T08:51:09.416Z,17.75
2018-01-15T08:53:36.875Z,19.25
2018-01-15T08:56:05.234Z,19.27
2018-01-15T08:58:33.674Z,19.08
2018-01-15T09:01:01.301Z,21.45
2018-01-15T09:03:28.986Z,19.58
2018-01-15T09:05:56.528Z,19.45
2018-01-15T09:08:24.029Z,20.95
2018-01-15T09:10:52.341Z,21.20
2018-01-15T09:13:19.878Z,20.05
2018-01-15T09:15:47.410Z,19.52
2018-01-15T09:18:14.913Z,19.50
2018-01-15T09:20:43.868Z,22.60
2018-01-15T09:23:12.155Z,22.85
2018-01-15T09:25:40.513Z,21.25
2018-01-15T09:28:08.149Z,16.73
2018-01-15T09:30:35.775Z,21.87
2018-01-15T09:33:04.936Z,20.37
2018-01-15T09:35:33.205Z,17.98
2018-01-15T09:38:00.723Z,20.70
2018-01-15T09:40:28.256Z,19.40
2018-01-15T09:42:55.759Z,18.65
2018-01-15T09:45:23.314Z,18.65
2018-01-15T09:47:50.839Z,18.35
2018-01-15T09:50:18.341Z,19.02
2018-01-15T09:52:45.886Z,20.75
2018-01-15T09:55:13.378Z,20.42
2018-01-15T09:57:41.591Z,18.17
2018-01-15T10:00:09.044Z,19.07
2018-01-15T10:02:39.835Z,16.92
2018-01-15T10:05:07.368Z,20.10
2018-01-15T10:07:35.006Z,17.73
2018-01-15T10:10:02.591Z,19.10
2018-01-15T10:12:30.113Z,16.00
2018-01-15T10:14:58.715Z,20.37
2018-01-15T10:17:26.257Z,19.23
2018-01-15T10:19:53.719Z,18.58
2018-01-15T10:22:21.291Z,18.23
2018-01-15T10:24:48.915Z,17.65
2018-01-15T10:27:16.585Z,20.47
2018-01-15T10:29:45.643Z,22.40
2018-01-15T10:32:13.096Z,19.00
2018-01-15T10:40:09.890Z,17.80
2018-01-15T10:42:37.495Z,17.23
2018-01-15T10:45:05.005Z,19.13
2018-01-15T10:47:32.539Z,17.63
2018-01-15T10:50:00.097Z,17.90
2018-01-15T10:52:50.284Z,18.80
2018-01-15T10:55:17.778Z,18.77
2018-01-15T10:57:46.066Z,19.00
2018-01-15T11:00:13.533Z,20.40
2018-01-15T11:02:40.988Z,20.90
2018-01-15T11:05:08.440Z,19.73
2018-01-15T11:07:43.715Z,19.93
2018-01-15T11:10:11.230Z,19.23
2018-01-15T11:12:39.527Z,15.50
2018-01-15T11:21:02.624Z,20.43
2018-01-15T11:23:30.087Z,18.10
2018-01-15T11:25:57.600Z,22.47
2018-01-15T11:31:21.402Z,17.30
2018-01-15T11:33:49.632Z,22.53
2018-01-15T11:36:20.035Z,20.57
2018-01-15T11:38:56.402Z,20.85
2018-01-15T11:42:02.171Z,21.23
2018-01-15T11:44:30.472Z,19.77
2018-01-15T11:50:55.248Z,19.73
2018-01-15T11:53:22.782Z,24.17
2018-01-15T11:55:50.269Z,21.80
2018-01-15T11:58:17.751Z,21.25
2018-01-15T12:00:45.250Z,18.97
2018-01-15T12:03:13.516Z,23.70
2018-01-15T12:05:41.771Z,21.30
2018-01-15T12:08:09.305Z,20.23
2018-01-15T12:10:36.791Z,21.90
2018-01-15T12:13:04.325Z,20.10
2018-01-15T12:15:31.818Z,17.90
2018-01-15T12:18:08.732Z,18.37
2018-01-15T12:20:36.228Z,19.10
2018-01-15T12:23:03.747Z,19.27
2018-01-15T12:25:37.808Z,20.53
2018-01-15T12:28:05.449Z,18.70
2018-01-15T12:44:22.413Z,20.20
2018-01-15T12:46:49.902Z,19.95
2018-01-15T12:49:19.096Z,19.20
2018-01-15T12:53:16.373Z,19.90
2018-01-15T12:55:43.959Z,18.17
2018-01-15T12:58:12.465Z,19.50
2018-01-15T13:00:40.736Z,19.00
2018-01-15T13:03:08.950Z,19.10
2018-01-15T13:05:51.383Z,20.70
2018-01-15T13:08:30.692Z,18.97
2018-01-15T13:10:58.169Z,21.40
2018-01-15T13:13:25.621Z,17.73
2018-01-15T13:15:53.102Z,19.50
2018-01-15T13:18:20.564Z,17.30
2018-01-15T13:20:48.814Z,21.33
2018-01-15T13:23:16.276Z,19.57
2018-01-15T13:25:43.737Z,16.80
2018-01-15T13:28:11.228Z,19.00
2018-01-15T13:30:38.676Z,21.00
2018-01-15T13:33:06.911Z,19.30
2018-01-15T13:35:34.483Z,21.13
2018-01-15T13:38:02.003Z,19.40
2018-01-15T13:40:29.475Z,19.27
2018-01-15T13:42:56.952Z,19.30
2018-01-15T13:45:24.407Z,20.17
2018-01-15T13:47:51.863Z,19.73
2018-01-15T13:50:19.336Z,19.40
2018-01-15T13:52:46.827Z,17.50
2018-01-15T13:55:15.156Z,18.10
2018-01-15T13:57:42.649Z,21.10
2018-01-15T14:00:10.921Z,17.63
2018-01-15T14:02:39.225Z,20.77
2018-01-15T14:05:06.693Z,21.60
2018-01-15T14:07:34.161Z,22.90
2018-01-15T14:10:01.629Z,18.83
2018-01-15T14:12:29.086Z,17.27
2018-01-15T14:14:56.622Z,18.60
2018-01-15T14:17:24.137Z,20.47
2018-01-15T14:19:53.959Z,20.00
2018-01-15T14:22:22.321Z,19.00
2018-01-15T14:25:20.443Z,20.10
2018-01-15T14:27:48.085Z,20.00
2018-01-15T14:30:15.600Z,19.03
2018-01-15T14:32:43.149Z,19.90
2018-01-15T14:35:10.610Z,20.70
2018-01-15T14:37:38.090Z,20.90
2018-01-15T14:40:05.628Z,21.83
2018-01-15T14:42:33.004Z,17.27
2018-01-15T14:45:00.472Z,20.10
2018-01-15T14:47:28.720Z,18.07
2018-01-15T14:49:56.343Z,21.73
2018-01-15T14:52:23.856Z,25.53
2018-01-15T14:54:52.081Z,20.03
2018-01-15T14:57:19.657Z,20.50
2018-01-15T14:59:47.166Z,21.87
2018-01-15T15:02:15.454Z,23.40
2018-01-15T15:04:42.988Z,16.93
2018-01-15T15:07:11.326Z,18.40
2018-01-15T15:09:38.785Z,18.97
2018-01-15T15:12:06.260Z,18.20
2018-01-15T15:14:33.707Z,21.90
2018-01-15T15:17:02.457Z,19.93
2018-01-15T15:19:30.744Z,22.10
2018-01-15T15:21:58.329Z,21.50
2018-01-15T15:24:25.829Z,20.30
2018-01-15T15:26:54.102Z,20.10
2018-01-15T15:29:22.324Z,18.67
2018-01-15T15:31:50.005Z,21.63
2018-01-15T15:34:17.470Z,22.42
2018-01-15T15:36:44.937Z,20.00
2018-01-15T15:39:13.382Z,19.37
2018-01-15T15:41:40.994Z,17.97
2018-01-15T15:44:09.272Z,19.03
2018-01-15T15:46:36.706Z,20.97
2018-01-15T15:49:04.924Z,19.30
2018-01-15T15:51:32.359Z,20.03
2018-01-15T15:53:59.815Z,21.50
2018-01-15T15:56:27.265Z,19.33
2018-01-15T15:58:55.483Z,20.20
2018-01-15T16:01:22.930Z,20.20
2018-01-15T16:03:50.385Z,23.17
2018-01-15T16:06:17.840Z,16.67
2018-01-15T16:08:45.294Z,18.20
2018-01-15T16:11:12.768Z,23.10
2018-01-15T16:13:40.221Z,23.30
2018-01-15T16:16:07.674Z,24.80
2018-01-15T16:18:35.202Z,16.13
2018-01-15T16:21:02.718Z,18.77
2018-01-15T16:23:30.139Z,20.77
2018-01-15T16:25:57.576Z,20.07
2018-01-15T16:28:25.020Z,17.53
2018-01-15T16:30:53.252Z,19.73
2018-01-15T16:33:20.702Z,18.30
2018-01-15T16:35:48.158Z,20.30
2018-01-15T16:38:15.624Z,18.73
2018-01-15T16:40:43.072Z,20.87
2018-01-15T16:43:10.532Z,17.77
2018-01-15T16:45:38.009Z,17.83
2018-01-15T16:48:06.968Z,21.90
2018-01-15T16:50:34.423Z,18.53
2018-01-15T16:53:01.875Z,14.80
2018-01-15T16:55:29.321Z,21.93
2018-01-15T16:57:56.785Z,19.93
2018-01-15T17:00:24.235Z,21.00
2018-01-15T17:02:51.694Z,19.03
2018-01-15T18:21:18.654Z,12.63
2018-01-15T18:23:46.137Z,10.67
2018-01-15T18:26:13.706Z,11.27
2018-01-15T18:28:41.933Z,16.40
2018-01-15T18:31:09.393Z,18.70
2018-01-15T18:33:36.852Z,14.30
2018-01-15T18:36:04.313Z,10.90
2018-01-15T18:38:32.014Z,13.93
2018-01-15T18:40:59.480Z,15.80
2018-01-15T18:43:27.689Z,15.50
2018-01-15T18:45:55.155Z,15.43
2018-01-15T18:48:22.602Z,15.67
2018-01-15T18:50:50.043Z,13.03
2018-01-15T18:53:17.495Z,14.33
2018-01-15T18:55:45.703Z,14.87
2018-01-15T18:58:13.150Z,12.37
2018-01-15T19:00:40.594Z,15.47
2018-01-15T19:03:08.044Z,13.50
2018-01-15T19:05:35.487Z,13.10
2018-01-15T19:08:03.711Z,16.20
2018-01-15T19:10:31.156Z,12.60
2018-01-15T19:12:58.599Z,14.60
2018-01-15T19:15:26.066Z,13.73
2018-01-15T19:17:53.513Z,13.77
2018-01-15T19:20:20.964Z,14.90
2018-01-15T19:22:48.417Z,10.98
2018-01-15T19:25:15.868Z,13.07
2018-01-15T19:27:43.307Z,12.80
2018-01-15T19:30:11.576Z,9.07
2018-01-15T19:32:38.976Z,9.37
2018-01-15T19:35:09.929Z,8.73
2018-01-15T19:37:37.955Z,6.80
2018-01-15T19:40:06.209Z,11.07
2018-01-15T19:42:33.690Z,8.47
2018-01-15T19:45:07.645Z,8.13
2018-01-15T19:47:40.875Z,10.00
2018-01-15T19:50:14.110Z,7.93
2018-01-15T19:55:54.035Z,7.33
2018-01-15T19:58:27.230Z,6.00
2018-01-15T20:01:00.292Z,9.00
2018-01-15T20:03:33.570Z,7.73
2018-01-15T20:06:06.762Z,5.10
2018-01-15T20:11:40.156Z,6.60
2018-01-15T20:14:07.604Z,7.80
2018-01-15T20:16:35.065Z,9.03
2018-01-15T20:19:02.517Z,8.10
2018-01-15T20:21:29.954Z,7.90
2018-01-15T20:23:58.224Z,8.30
2018-01-15T20:26:25.697Z,10.20
2018-01-15T20:28:53.903Z,7.20
2018-01-15T20:31:21.340Z,4.97
2018-01-15T20:33:48.836Z,8.50
2018-01-15T20:36:16.301Z,6.30
2018-01-15T20:38:43.782Z,7.83
2018-01-15T20:41:12.041Z,11.20
2018-01-15T20:43:39.528Z,7.73
2018-01-15T20:46:07.803Z,8.37
2018-01-15T20:48:35.271Z,9.13
2018-01-15T20:51:02.761Z,6.73
2018-01-15T20:53:30.232Z,7.27
2018-01-15T20:55:57.769Z,8.10
2018-01-15T20:58:25.259Z,8.30
2018-01-15T21:00:52.768Z,9.20
2018-01-15T21:03:20.273Z,5.87
2018-01-15T21:05:47.761Z,5.53
2018-01-15T21:08:16.063Z,7.80
2018-01-15T21:10:43.600Z,8.17
2018-01-15T21:13:12.013Z,9.60
2018-01-15T21:15:39.530Z,6.40
2018-01-15T21:18:07.005Z,5.87
2018-01-15T21:20:34.507Z,8.87
2018-01-15T21:23:01.975Z,7.80
2018-01-15T21:25:29.454Z,7.10
2018-01-15T21:27:57.702Z,7.13
2018-01-15T21:30:25.136Z,8.03
2018-01-15T21:32:52.625Z,5.87
2018-01-15T21:35:20.106Z,7.00
2018-01-15T21:37:48.367Z,7.82
2018-01-15T21:40:15.847Z,5.90
2018-01-15T21:42:44.075Z,6.87
2018-01-15T21:45:11.516Z,5.57
2018-01-15T21:47:39.001Z,5.93
2018-01-15T21:50:06.440Z,5.70
2018-01-15T21:52:33.895Z,6.40
2018-01-15T21:55:01.381Z,5.23
2018-01-15T21:57:28.868Z,6.47
2018-01-15T21:59:57.065Z,5.53
2018-01-15T22:02:24.508Z,5.87
2018-01-15T22:04:51.997Z,4.17
2018-01-15T22:07:19.431Z,5.20
2018-01-15T22:09:46.922Z,6.13
2018-01-15T22:12:14.402Z,5.60
2018-01-15T22:14:41.841Z,4.50
2018-01-15T22:17:09.342Z,4.20
2018-01-15T22:19:36.789Z,4.03
2018-01-15T22:22:05.000Z,4.57
2018-01-15T22:24:32.441Z,3.47
2018-01-15T22:26:59.934Z,3.20
2018-01-15T22:29:27.361Z,3.13
2018-01-15T22:31:57.796Z,2.13
2018-01-15T22:34:25.367Z,3.00
2018-01-15T22:36:53.706Z,2.70
2018-01-15T22:39:21.193Z,2.80
2018-01-15T22:41:48.748Z,2.10
2018-01-15T22:44:16.238Z,2.77
2018-01-15T22:46:43.738Z,3.63
2018-01-15T22:49:11.254Z,2.70
2018-01-15T22:51:38.738Z,2.00
2018-01-15T22:54:06.985Z,2.80
2018-01-15T22:56:34.570Z,2.27
2018-01-15T22:59:02.853Z,2.83
2018-01-15T23:01:31.340Z,1.73
2018-01-15T23:03:59.589Z,2.43
2018-01-15T23:06:27.246Z,2.00
2018-01-15T23:08:54.755Z,2.60
2018-01-15T23:11:22.295Z,1.67
2018-01-15T23:13:49.819Z,1.73
2018-01-15T23:16:17.326Z,2.30
2018-01-15T23:18:44.888Z,1.47
2018-01-15T23:21:12.534Z,2.30
2018-01-15T23:23:39.980Z,1.77
2018-01-15T23:26:08.185Z,2.17
2018-01-15T23:28:35.682Z,2.07
2018-01-15T23:31:03.137Z,1.80
2018-01-15T23:33:30.593Z,2.13
2018-01-15T23:35:58.037Z,2.10
2018-01-15T23:38:25.471Z,1.70
2018-01-15T23:40:52.922Z,1.97
2018-01-15T23:43:20.365Z,1.90
2018-01-15T23:45:47.811Z,1.97
2018-01-15T23:48:16.027Z,2.40
2018-01-15T23:50:43.474Z,1.23
2018-01-15T23:53:10.918Z,1.50
2018-01-15T23:55:38.358Z,1.70
2018-01-15T23:58:05.801Z,0.97
